Terminal Aerodrome Forecast
Issued by NWS

Home | Current Version | Previous Version | Text Only | Print | Product List | Glossary On
Versions: 1 2 3 4 5 6 7 8 9 10 11 12 13 14 15 16 17 18 19 20 21
000
FTUS46 KSEW 210500
TAFOLM
TAF
KOLM 210520Z 2106/2206 21014G24KT 4SM -RA BR FEW010 BKN020 OVC035
     FM211600 24012KT 5SM -RA BR FEW010 BKN025 OVC040
     FM212100 24010KT P6SM BKN025 OVC040=

USA.gov is the U.S. government's official web portal to all federal, state and local government web resources and services.